createdAt,value
2019-03-01T00:01:26.010Z,18.91
2019-03-01T00:03:57.072Z,18.90
2019-03-01T00:06:29.870Z,18.88
2019-03-01T00:08:58.812Z,18.85
2019-03-01T00:11:25.950Z,18.83
2019-03-01T00:13:58.287Z,18.82
2019-03-01T00:16:25.682Z,18.81
2019-03-01T00:18:54.983Z,18.80
2019-03-01T00:21:23.362Z,18.75
2019-03-01T00:23:53.315Z,18.72
2019-03-01T00:26:20.418Z,18.68
2019-03-01T00:28:51.890Z,18.67
2019-03-01T00:31:19.314Z,18.64
2019-03-01T00:33:56.517Z,18.61
2019-03-01T00:36:25.211Z,18.62
2019-03-01T00:38:55.268Z,18.63
2019-03-01T00:41:24.813Z,18.64
2019-03-01T00:43:54.642Z,18.68
2019-03-01T00:46:23.869Z,18.66
2019-03-01T00:48:53.170Z,18.62
2019-03-01T00:51:19.845Z,18.60
2019-03-01T00:53:48.986Z,18.57
2019-03-01T00:56:16.413Z,18.53
2019-03-01T00:58:46.730Z,18.49
2019-03-01T01:01:16.158Z,18.46
2019-03-01T01:03:42.751Z,18.43
2019-03-01T01:06:09.840Z,18.40
2019-03-01T01:08:38.686Z,18.40
2019-03-01T01:11:05.804Z,18.41
2019-03-01T01:13:33.006Z,18.38
2019-03-01T01:16:01.079Z,18.38
2019-03-01T01:18:30.941Z,18.40
2019-03-01T01:20:58.078Z,18.41
2019-03-01T01:23:30.464Z,18.43
2019-03-01T01:26:01.329Z,18.41
2019-03-01T01:28:28.483Z,18.42
2019-03-01T01:30:57.163Z,18.44
2019-03-01T01:33:24.494Z,18.43
2019-03-01T01:35:55.795Z,18.40
2019-03-01T01:38:22.864Z,18.44
2019-03-01T01:40:50.063Z,18.41
2019-03-01T01:43:23.511Z,18.35
2019-03-01T01:45:53.643Z,18.30
2019-03-01T01:48:20.731Z,18.30
2019-03-01T01:50:47.748Z,18.30
2019-03-01T01:53:17.821Z,18.32
2019-03-01T01:55:47.564Z,18.37
2019-03-01T01:58:14.589Z,18.33
2019-03-01T02:00:43.103Z,18.34
2019-03-01T02:03:12.607Z,18.31
2019-03-01T02:05:43.695Z,18.28
2019-03-01T02:08:07.752Z,18.25
2019-03-01T02:10:35.213Z,18.23
2019-03-01T02:13:03.921Z,18.21
2019-03-01T02:15:32.852Z,18.17
2019-03-01T02:18:01.808Z,18.16
2019-03-01T02:20:32.065Z,18.19
2019-03-01T02:22:59.999Z,18.18
2019-03-01T02:25:27.049Z,18.20
2019-03-01T02:27:56.163Z,18.22
2019-03-01T02:30:23.298Z,18.20
2019-03-01T02:32:50.357Z,18.20
2019-03-01T02:35:17.357Z,18.16
2019-03-01T02:37:47.583Z,18.07
2019-03-01T02:40:22.525Z,18.05
2019-03-01T02:42:49.823Z,17.98
2019-03-01T02:45:17.179Z,17.94
2019-03-01T02:47:50.869Z,17.90
2019-03-01T02:50:22.948Z,17.79
2019-03-01T02:52:52.091Z,17.70
2019-03-01T02:55:22.529Z,17.65
2019-03-01T02:57:54.686Z,17.70
2019-03-01T03:00:18.725Z,17.80
2019-03-01T03:02:45.796Z,17.83
2019-03-01T03:05:12.733Z,17.82
2019-03-01T03:07:40.991Z,17.81
2019-03-01T03:10:08.096Z,17.76
2019-03-01T03:12:37.016Z,17.77
2019-03-01T03:15:05.339Z,17.75
2019-03-01T03:17:35.155Z,17.78
2019-03-01T03:20:04.521Z,17.81
2019-03-01T03:22:31.516Z,17.82
2019-03-01T03:25:02.239Z,17.76
2019-03-01T03:27:30.134Z,17.67
2019-03-01T03:30:06.692Z,17.66
2019-03-01T03:32:33.709Z,17.72
2019-03-01T03:35:00.792Z,17.79
2019-03-01T03:37:31.534Z,17.85
2019-03-01T03:40:00.768Z,17.88
2019-03-01T03:42:27.999Z,17.94
2019-03-01T03:44:55.545Z,17.98
2019-03-01T03:47:24.721Z,17.99
2019-03-01T03:49:51.769Z,18.04
2019-03-01T03:52:18.841Z,18.09
2019-03-01T03:54:48.382Z,18.10
2019-03-01T03:57:17.021Z,18.10
2019-03-01T03:59:44.144Z,18.07
2019-03-01T04:02:12.246Z,17.98
2019-03-01T04:04:46.703Z,17.95
2019-03-01T04:07:13.762Z,17.89
2019-03-01T04:09:42.707Z,17.87
2019-03-01T04:12:10.370Z,17.84
2019-03-01T04:14:37.497Z,17.85
2019-03-01T04:17:07.906Z,17.80
2019-03-01T04:19:39.814Z,17.78
2019-03-01T04:22:23.084Z,17.77
2019-03-01T04:24:50.096Z,17.75
2019-03-01T04:27:17.049Z,17.77
2019-03-01T04:29:44.417Z,17.79
2019-03-01T04:32:11.388Z,17.76
2019-03-01T04:34:38.356Z,17.78
2019-03-01T04:37:07.505Z,17.79
2019-03-01T04:39:34.880Z,17.80
2019-03-01T04:42:02.269Z,17.75
2019-03-01T04:44:29.327Z,17.72
2019-03-01T04:46:56.657Z,17.73
2019-03-01T04:49:29.526Z,17.73
2019-03-01T04:51:57.014Z,17.75
2019-03-01T04:54:24.660Z,17.76
2019-03-01T04:56:52.025Z,17.77
2019-03-01T04:59:32.539Z,17.75
2019-03-01T05:01:50.149Z,17.72
2019-03-01T05:04:17.654Z,17.76
2019-03-01T05:06:47.478Z,17.84
2019-03-01T05:09:14.514Z,17.90
2019-03-01T05:11:45.340Z,17.98
2019-03-01T05:14:12.443Z,18.05
2019-03-01T05:16:43.415Z,18.12
2019-03-01T05:19:13.008Z,18.17
2019-03-01T05:21:42.396Z,18.21
2019-03-01T05:24:14.695Z,18.23
2019-03-01T05:26:42.779Z,18.23
2019-03-01T05:29:10.240Z,18.27
2019-03-01T05:31:39.398Z,18.25
2019-03-01T05:34:07.291Z,18.26
2019-03-01T05:36:34.484Z,18.31
2019-03-01T05:39:01.766Z,18.34
2019-03-01T05:41:34.010Z,18.33
2019-03-01T05:44:01.040Z,18.32
2019-03-01T05:46:35.482Z,18.32
2019-03-01T05:49:02.822Z,18.31
2019-03-01T05:51:29.948Z,18.31
2019-03-01T05:53:59.039Z,18.31
2019-03-01T05:56:35.007Z,18.33
2019-03-01T05:59:02.268Z,18.35
2019-03-01T06:01:36.676Z,18.36
2019-03-01T06:04:05.956Z,18.36
2019-03-01T06:06:32.974Z,18.33
2019-03-01T06:09:00.034Z,18.35
2019-03-01T06:11:26.994Z,18.34
2019-03-01T06:13:57.256Z,18.36
2019-03-01T06:16:24.314Z,18.35
2019-03-01T06:18:54.904Z,18.35
2019-03-01T06:21:26.094Z,18.33
2019-03-01T06:23:55.911Z,18.27
2019-03-01T06:26:24.603Z,18.30
2019-03-01T06:28:57.616Z,18.29
2019-03-01T06:31:34.122Z,18.27
2019-03-01T06:33:59.798Z,18.29
2019-03-01T06:36:30.181Z,18.29
2019-03-01T06:39:02.143Z,18.31
2019-03-01T06:41:27.665Z,18.37
2019-03-01T06:43:58.731Z,18.37
2019-03-01T06:46:26.934Z,18.38
2019-03-01T06:49:00.457Z,18.39
2019-03-01T06:51:29.412Z,18.38
2019-03-01T06:53:59.504Z,18.36
2019-03-01T06:56:26.570Z,18.38
2019-03-01T06:58:53.998Z,18.39
2019-03-01T07:01:25.834Z,18.40
2019-03-01T07:03:55.490Z,18.38
2019-03-01T07:06:25.040Z,18.40
2019-03-01T07:08:53.680Z,18.40
2019-03-01T07:11:22.438Z,18.40
2019-03-01T07:13:51.458Z,18.39
2019-03-01T07:16:18.821Z,18.37
2019-03-01T07:18:46.082Z,18.38
2019-03-01T07:21:16.009Z,18.39
2019-03-01T07:23:43.117Z,18.36
2019-03-01T07:26:10.467Z,18.36
2019-03-01T07:28:40.450Z,18.39
2019-03-01T07:31:07.511Z,18.40
2019-03-01T07:33:36.714Z,18.43
2019-03-01T07:36:05.393Z,18.46
2019-03-01T07:38:32.563Z,18.48
2019-03-01T07:40:59.934Z,18.50
2019-03-01T07:43:27.360Z,18.53
2019-03-01T07:45:54.684Z,18.55
2019-03-01T07:48:22.091Z,18.56
2019-03-01T07:50:49.089Z,18.55
2019-03-01T07:53:17.154Z,18.55
2019-03-01T07:55:46.492Z,18.54
2019-03-01T07:58:15.086Z,18.54
2019-03-01T08:00:42.434Z,18.54
2019-03-01T08:03:11.899Z,18.57
2019-03-01T08:05:40.249Z,18.59
2019-03-01T08:08:07.586Z,18.58
2019-03-01T08:10:36.949Z,18.60
2019-03-01T08:13:04.576Z,18.60
2019-03-01T08:15:34.446Z,18.62
2019-03-01T08:18:04.856Z,18.62
2019-03-01T08:20:30.440Z,18.62
2019-03-01T08:23:01.962Z,18.61
2019-03-01T08:25:28.509Z,18.62
2019-03-01T08:27:59.438Z,18.63
2019-03-01T08:30:26.771Z,18.65
2019-03-01T08:32:56.328Z,18.70
2019-03-01T08:35:25.347Z,18.76
2019-03-01T08:37:53.397Z,18.78
2019-03-01T08:40:20.809Z,18.78
2019-03-01T08:42:50.965Z,18.75
2019-03-01T08:45:19.291Z,18.73
2019-03-01T08:47:55.358Z,18.69
2019-03-01T08:50:17.590Z,18.67
2019-03-01T08:52:48.988Z,18.68
2019-03-01T08:55:16.498Z,18.70
2019-03-01T08:57:44.436Z,18.67
2019-03-01T09:00:14.490Z,18.65
2019-03-01T09:02:42.013Z,18.68
2019-03-01T09:05:09.925Z,18.73
2019-03-01T09:07:39.682Z,18.77
2019-03-01T09:10:06.738Z,18.83
2019-03-01T09:12:35.783Z,18.86
2019-03-01T09:15:07.365Z,18.82
2019-03-01T09:17:32.035Z,18.77
2019-03-01T09:20:02.812Z,18.77
2019-03-01T09:22:29.883Z,18.81
2019-03-01T09:24:57.053Z,18.81
2019-03-01T09:27:30.160Z,18.81
2019-03-01T09:29:59.422Z,18.72
2019-03-01T09:32:30.444Z,18.56
2019-03-01T09:34:58.173Z,18.56
2019-03-01T09:37:25.634Z,18.56
2019-03-01T09:39:53.747Z,18.64
2019-03-01T09:42:24.628Z,18.77
2019-03-01T09:44:51.746Z,18.83
2019-03-01T09:47:20.891Z,18.92
2019-03-01T09:49:52.393Z,18.93
2019-03-01T09:52:20.403Z,18.84
2019-03-01T09:54:50.225Z,18.77
2019-03-01T09:57:18.833Z,18.76
2019-03-01T09:59:52.011Z,18.82
2019-03-01T10:02:19.193Z,18.88
2019-03-01T10:04:48.042Z,18.82
2019-03-01T10:07:16.661Z,18.84
2019-03-01T10:09:44.680Z,18.88
2019-03-01T10:12:18.351Z,18.92
2019-03-01T10:14:42.036Z,18.91
2019-03-01T10:17:08.992Z,18.93
2019-03-01T10:19:36.494Z,19.00
2019-03-01T10:22:04.880Z,19.02
2019-03-01T10:24:34.738Z,19.05
2019-03-01T10:27:03.098Z,19.10
2019-03-01T10:29:32.125Z,19.11
2019-03-01T10:31:59.237Z,19.09
2019-03-01T10:34:26.574Z,19.03
2019-03-01T10:36:54.046Z,18.93
2019-03-01T10:39:21.046Z,18.89
2019-03-01T10:41:50.035Z,18.88
2019-03-01T10:44:17.033Z,18.76
2019-03-01T10:46:45.699Z,18.75
2019-03-01T10:49:15.704Z,18.81
2019-03-01T10:51:42.686Z,18.82
2019-03-01T10:54:09.713Z,18.79
2019-03-01T10:56:37.058Z,18.81
2019-03-01T10:59:04.473Z,18.68
2019-03-01T11:01:31.960Z,18.60
2019-03-01T11:03:58.979Z,18.68
2019-03-01T11:06:26.496Z,18.64
2019-03-01T11:08:55.079Z,18.69
2019-03-01T11:11:23.675Z,18.76
2019-03-01T11:13:51.098Z,18.82
2019-03-01T11:16:18.150Z,18.86
2019-03-01T11:18:45.401Z,18.96
2019-03-01T11:21:12.491Z,19.07
2019-03-01T11:23:39.832Z,19.11
2019-03-01T11:26:09.345Z,19.17
2019-03-01T11:28:36.742Z,19.12
2019-03-01T11:31:06.597Z,19.10
2019-03-01T11:33:33.567Z,19.10
2019-03-01T11:36:00.644Z,19.10
2019-03-01T11:38:27.628Z,19.09
2019-03-01T11:40:55.859Z,19.08
2019-03-01T11:43:23.429Z,19.16
2019-03-01T11:45:50.464Z,19.19
2019-03-01T11:48:18.226Z,19.29
2019-03-01T11:50:45.349Z,19.37
2019-03-01T11:53:12.501Z,19.41
2019-03-01T11:55:41.370Z,19.45
2019-03-01T11:58:08.522Z,19.43
2019-03-01T12:00:35.483Z,19.40
2019-03-01T12:03:05.365Z,19.29
2019-03-01T12:05:34.472Z,19.25
2019-03-01T12:08:01.475Z,19.25
2019-03-01T12:10:28.838Z,19.30
2019-03-01T12:12:56.001Z,19.39
2019-03-01T12:15:23.311Z,19.47
2019-03-01T12:17:52.334Z,19.53
2019-03-01T12:20:21.219Z,19.50
2019-03-01T12:22:51.769Z,19.51
2019-03-01T12:25:19.350Z,19.54
2019-03-01T12:27:47.192Z,19.55
2019-03-01T12:30:14.378Z,19.53
2019-03-01T12:32:53.081Z,19.48
2019-03-01T12:35:22.026Z,19.48
2019-03-01T12:37:50.934Z,19.48
2019-03-01T12:40:18.339Z,19.49
2019-03-01T12:42:45.809Z,19.40
2019-03-01T12:45:15.346Z,19.38
2019-03-01T12:47:44.734Z,19.42
2019-03-01T12:50:11.789Z,19.42
2019-03-01T12:52:38.813Z,19.36
2019-03-01T12:55:12.299Z,19.33
2019-03-01T12:57:39.758Z,19.38
2019-03-01T13:00:14.371Z,19.41
2019-03-01T13:02:43.584Z,19.47
2019-03-01T13:05:12.629Z,19.44
2019-03-01T13:07:44.440Z,19.42
2019-03-01T13:10:11.486Z,19.39
2019-03-01T13:12:41.164Z,19.38
2019-03-01T13:15:10.675Z,19.37
2019-03-01T13:17:38.291Z,19.39
2019-03-01T13:20:07.071Z,19.41
2019-03-01T13:22:34.248Z,19.39
2019-03-01T13:25:07.491Z,19.37
2019-03-01T13:27:29.939Z,19.34
2019-03-01T13:29:58.636Z,19.10
2019-03-01T13:32:26.313Z,18.79
2019-03-01T13:34:53.357Z,18.57
2019-03-01T13:37:20.502Z,18.53
2019-03-01T13:39:51.026Z,18.51
2019-03-01T13:42:18.421Z,18.47
2019-03-01T13:44:47.169Z,18.47
2019-03-01T13:47:15.280Z,18.43
2019-03-01T13:49:42.299Z,18.44
2019-03-01T13:52:09.447Z,18.49
2019-03-01T13:54:36.599Z,18.54
2019-03-01T13:57:04.021Z,18.60
2019-03-01T13:59:31.157Z,18.60
2019-03-01T14:01:58.254Z,18.60
2019-03-01T14:04:26.878Z,18.62
2019-03-01T14:06:54.227Z,18.63
2019-03-01T14:09:23.302Z,18.65
2019-03-01T14:11:51.009Z,18.69
2019-03-01T14:14:18.031Z,18.73
2019-03-01T14:16:44.962Z,18.77
2019-03-01T14:19:12.361Z,18.81
2019-03-01T14:21:39.627Z,18.87
2019-03-01T14:24:07.045Z,18.84
2019-03-01T14:26:34.609Z,18.81
2019-03-01T14:29:01.840Z,18.80
2019-03-01T14:31:28.885Z,18.78
2019-03-01T14:33:55.881Z,18.79
2019-03-01T14:36:24.523Z,18.84
2019-03-01T14:38:51.844Z,18.86
2019-03-01T14:41:19.015Z,18.92
2019-03-01T14:43:46.331Z,18.93
2019-03-01T14:46:13.753Z,18.90
2019-03-01T14:48:43.013Z,18.79
2019-03-01T14:51:10.885Z,18.80
2019-03-01T14:53:38.479Z,18.79
2019-03-01T14:56:05.504Z,18.79
2019-03-01T14:58:32.795Z,18.79
2019-03-01T15:00:59.819Z,18.79
2019-03-01T15:03:27.379Z,18.74
2019-03-01T15:05:59.154Z,18.74
2019-03-01T15:08:27.746Z,18.69
2019-03-01T15:10:55.642Z,18.60
2019-03-01T15:13:22.655Z,18.61
2019-03-01T15:15:52.563Z,18.66
2019-03-01T15:18:19.652Z,18.69
2019-03-01T15:20:47.061Z,18.68
2019-03-01T15:23:15.235Z,18.63
2019-03-01T15:25:47.291Z,18.64
2019-03-01T15:28:16.529Z,18.59
2019-03-01T15:30:48.229Z,18.53
2019-03-01T15:33:21.301Z,18.51
2019-03-01T15:35:49.471Z,18.51
2019-03-01T15:38:16.510Z,18.50
2019-03-01T15:40:43.541Z,18.54
2019-03-01T15:43:10.555Z,18.58
2019-03-01T15:45:39.892Z,18.62
2019-03-01T15:48:08.508Z,18.62
2019-03-01T15:50:37.110Z,18.57
2019-03-01T15:53:04.463Z,18.54
2019-03-01T15:55:34.438Z,18.53
2019-03-01T15:58:01.406Z,18.52
2019-03-01T16:00:29.462Z,18.49
2019-03-01T16:03:00.212Z,18.44
2019-03-01T16:05:27.170Z,18.43
2019-03-01T16:07:54.498Z,18.40
2019-03-01T16:10:21.495Z,18.43
2019-03-01T16:12:48.973Z,18.40
2019-03-01T16:15:16.760Z,18.42
2019-03-01T16:17:44.377Z,18.39
2019-03-01T16:20:11.702Z,18.38
2019-03-01T16:22:38.889Z,18.38
2019-03-01T16:25:07.314Z,18.36
2019-03-01T16:27:36.183Z,18.35
2019-03-01T16:30:06.448Z,18.31
2019-03-01T16:32:33.914Z,18.28
2019-03-01T16:35:00.998Z,18.27
2019-03-01T16:37:28.464Z,18.26
2019-03-01T16:40:00.204Z,18.23
2019-03-01T16:42:26.842Z,18.22
2019-03-01T16:44:54.113Z,18.20
2019-03-01T16:47:23.322Z,18.14
2019-03-01T16:49:49.984Z,18.08
2019-03-01T16:52:20.288Z,18.02
2019-03-01T16:54:47.627Z,18.00
2019-03-01T16:57:21.677Z,17.99
2019-03-01T16:59:50.891Z,18.02
2019-03-01T17:02:19.792Z,18.04
2019-03-01T17:04:48.610Z,17.98
2019-03-01T17:07:16.113Z,17.95
2019-03-01T17:09:43.787Z,17.90
2019-03-01T17:12:13.847Z,17.81
2019-03-01T17:14:43.734Z,17.79
2019-03-01T17:17:10.871Z,17.82
2019-03-01T17:19:44.101Z,17.86
2019-03-01T17:22:14.422Z,17.85
2019-03-01T17:24:51.287Z,17.85
2019-03-01T17:27:16.144Z,17.85
2019-03-01T17:29:43.580Z,17.80
2019-03-01T17:32:19.511Z,17.78
2019-03-01T17:34:44.935Z,17.77
2019-03-01T17:37:14.844Z,17.78
2019-03-01T17:39:58.808Z,17.77
2019-03-01T17:42:20.721Z,17.74
2019-03-01T17:47:32.948Z,17.45
2019-03-01T17:50:00.524Z,17.25
2019-03-01T17:52:30.492Z,17.16
2019-03-01T17:55:01.428Z,17.10
2019-03-01T18:00:12.871Z,17.01
2019-03-01T18:02:54.715Z,16.97
2019-03-01T18:06:16.864Z,16.95
2019-03-01T18:22:23.080Z,17.32
2019-03-01T18:22:59.394Z,17.14
2019-03-01T18:27:26.088Z,17.16
2019-03-01T18:29:58.300Z,17.10
2019-03-01T18:32:26.437Z,17.06
2019-03-01T18:37:34.394Z,16.99
2019-03-01T18:40:13.430Z,16.94
2019-03-01T18:42:58.700Z,16.90
2019-03-01T18:45:19.099Z,16.93
2019-03-01T18:47:52.439Z,16.91
2019-03-01T18:50:21.094Z,16.86
2019-03-01T18:53:03.442Z,16.82
2019-03-01T18:55:32.991Z,16.81
2019-03-01T18:58:14.839Z,16.79
2019-03-01T19:03:24.017Z,16.68
2019-03-01T19:05:52.977Z,16.63
2019-03-01T19:08:36.532Z,16.60
2019-03-01T19:11:08.199Z,16.56
2019-03-01T19:13:52.211Z,16.58
2019-03-01T19:16:28.600Z,16.63
2019-03-01T19:21:27.762Z,16.66
2019-03-01T19:23:54.873Z,16.67
2019-03-01T19:26:22.184Z,16.69
2019-03-01T19:28:49.673Z,16.65
2019-03-01T19:31:16.640Z,16.63
2019-03-01T19:33:43.717Z,16.57
2019-03-01T19:36:11.909Z,16.59
2019-03-01T19:38:39.324Z,16.61
2019-03-01T19:41:06.849Z,16.57
2019-03-01T19:43:41.603Z,16.56
2019-03-01T19:46:09.248Z,16.52
2019-03-01T19:48:37.275Z,16.53
2019-03-01T19:51:08.699Z,16.57
2019-03-01T19:53:38.956Z,16.52
2019-03-01T19:56:08.047Z,16.50
2019-03-01T19:58:35.429Z,16.47
2019-03-01T20:01:06.231Z,16.44
2019-03-01T20:06:36.058Z,16.40
2019-03-01T20:09:04.497Z,16.23
2019-03-01T20:11:37.451Z,16.23
2019-03-01T20:14:04.503Z,16.22
2019-03-01T20:16:36.916Z,16.25
2019-03-01T20:22:04.773Z,16.23
2019-03-01T20:24:39.985Z,16.06
2019-03-01T20:27:05.891Z,16.02
2019-03-01T20:29:33.064Z,16.10
2019-03-01T20:32:00.019Z,16.15
2019-03-01T20:34:27.039Z,16.20
2019-03-01T20:36:57.599Z,16.25
2019-03-01T20:39:24.704Z,16.32
2019-03-01T20:41:52.109Z,16.25
2019-03-01T20:44:19.858Z,16.16
2019-03-01T20:46:54.048Z,16.11
2019-03-01T20:49:23.906Z,16.05
2019-03-01T20:51:52.408Z,16.00
2019-03-01T20:54:21.805Z,16.01
2019-03-01T20:59:20.586Z,16.04
2019-03-01T21:01:47.634Z,16.03
2019-03-01T21:04:16.997Z,16.01
2019-03-01T21:06:47.203Z,16.02
2019-03-01T21:09:14.482Z,16.04
2019-03-01T21:11:41.720Z,16.04
2019-03-01T21:14:08.718Z,16.05
2019-03-01T21:16:36.091Z,16.05
2019-03-01T21:19:05.801Z,16.06
2019-03-01T21:21:34.323Z,16.07
2019-03-01T21:24:01.542Z,16.05
2019-03-01T21:26:28.503Z,16.06
2019-03-01T21:28:55.554Z,16.02
2019-03-01T21:31:22.494Z,15.99
2019-03-01T21:33:49.540Z,16.03
2019-03-01T21:36:16.574Z,15.97
2019-03-01T21:38:45.761Z,15.97
2019-03-01T21:41:15.273Z,15.95
2019-03-01T21:43:44.557Z,15.92
2019-03-01T21:46:16.866Z,15.96
2019-03-01T21:48:43.855Z,15.97
2019-03-01T21:51:11.199Z,16.00
2019-03-01T21:53:39.925Z,15.97
2019-03-01T21:56:08.612Z,15.98
2019-03-01T21:58:38.515Z,15.96
2019-03-01T22:01:05.822Z,15.97
2019-03-01T22:03:33.324Z,15.96
2019-03-01T22:06:00.775Z,15.94
2019-03-01T22:08:29.296Z,15.90
2019-03-01T22:10:56.281Z,15.91
2019-03-01T22:13:23.557Z,15.92
2019-03-01T22:15:52.856Z,15.92
2019-03-01T22:18:20.507Z,15.90
2019-03-01T22:20:48.907Z,15.86
2019-03-01T22:23:22.228Z,15.85
2019-03-01T22:25:49.231Z,15.85
2019-03-01T22:28:21.202Z,15.83
2019-03-01T22:30:47.886Z,15.85
2019-03-01T22:33:17.473Z,15.77
2019-03-01T22:35:44.605Z,15.72
2019-03-01T22:38:12.080Z,15.71
2019-03-01T22:40:39.064Z,15.62
2019-03-01T22:43:06.345Z,15.62
2019-03-01T22:45:33.307Z,15.63
2019-03-01T22:48:01.944Z,15.59
2019-03-01T22:50:28.872Z,15.56
2019-03-01T22:52:55.880Z,15.57
2019-03-01T22:55:23.162Z,15.57
2019-03-01T22:57:50.563Z,15.51
2019-03-01T23:00:19.518Z,15.52
2019-03-01T23:02:47.951Z,15.55
2019-03-01T23:05:15.096Z,15.54
2019-03-01T23:07:43.581Z,15.58
2019-03-01T23:10:10.855Z,15.59
2019-03-01T23:12:40.562Z,15.56
2019-03-01T23:15:07.891Z,15.50
2019-03-01T23:17:35.061Z,15.48
2019-03-01T23:20:02.094Z,15.40
2019-03-01T23:22:29.486Z,15.40
2019-03-01T23:24:56.474Z,15.42
2019-03-01T23:27:23.458Z,15.46
2019-03-01T23:29:50.922Z,15.48
2019-03-01T23:32:19.071Z,15.53
2019-03-01T23:34:46.451Z,15.49
2019-03-01T23:37:14.842Z,15.34
2019-03-01T23:39:41.803Z,15.27
2019-03-01T23:42:08.783Z,15.31
2019-03-01T23:44:38.678Z,15.24
2019-03-01T23:47:04.410Z,15.24
2019-03-01T23:49:31.345Z,15.24
2019-03-01T23:51:58.635Z,15.24
2019-03-01T23:54:25.559Z,15.18
2019-03-01T23:56:52.829Z,15.07
2019-03-01T23:59:19.812Z,15.02
